sensor_id;sensor_type;location;lat;lon;timestamp;temperature;humidity
45729;DHT22;31439;53.512;10.206;2023-06-10T13:44:42;28.00;99.90
45729;DHT22;31439;53.512;10.206;2023-06-10T13:47:07;28.10;99.90
45729;DHT22;31439;53.512;10.206;2023-06-10T13:49:33;27.90;99.90
45729;DHT22;31439;53.512;10.206;2023-06-10T13:51:59;27.90;99.90
45729;DHT22;31439;53.512;10.206;2023-06-10T13:54:24;27.70;99.90
45729;DHT22;31439;53.512;10.206;2023-06-10T13:56:50;27.60;99.90
45729;DHT22;31439;53.512;10.206;2023-06-10T13:59:16;27.30;99.90
45729;DHT22;31439;53.512;10.206;2023-06-10T14:01:41;27.30;99.90
45729;DHT22;31439;53.512;10.206;2023-06-10T14:04:07;27.30;99.90
45729;DHT22;31439;53.512;10.206;2023-06-10T14:06:33;27.30;99.90
45729;DHT22;31439;53.512;10.206;2023-06-10T14:09:02;27.20;99.90
45729;DHT22;31439;53.512;10.206;2023-06-10T14:11:27;27.20;99.90
45729;DHT22;31439;53.512;10.206;2023-06-10T14:13:53;27.30;99.90
45729;DHT22;31439;53.512;10.206;2023-06-10T14:16:21;27.20;99.90
45729;DHT22;31439;53.512;10.206;2023-06-10T14:18:47;27.20;99.90
45729;DHT22;31439;53.512;10.206;2023-06-10T14:21:13;27.10;99.90
45729;DHT22;31439;53.512;10.206;2023-06-10T14:23:38;27.00;99.90
45729;DHT22;31439;53.512;10.206;2023-06-10T14:26:04;26.90;99.90
45729;DHT22;31439;53.512;10.206;2023-06-10T14:28:32;26.90;99.90
45729;DHT22;31439;53.512;10.206;2023-06-10T14:30:58;26.90;99.90
45729;DHT22;31439;53.512;10.206;2023-06-10T14:33:23;26.80;99.90
45729;DHT22;31439;53.512;10.206;2023-06-10T14:35:49;26.80;99.90
45729;DHT22;31439;53.512;10.206;2023-06-10T14:38:15;26.80;99.90
45729;DHT22;31439;53.512;10.206;2023-06-10T14:40:40;26.70;99.90
45729;DHT22;31439;53.512;10.206;2023-06-10T14:43:06;26.60;99.90
45729;DHT22;31439;53.512;10.206;2023-06-10T14:45:36;26.70;99.90
45729;DHT22;31439;53.512;10.206;2023-06-10T14:48:03;26.60;99.90
45729;DHT22;31439;53.512;10.206;2023-06-10T14:50:29;26.60;99.90
45729;DHT22;31439;53.512;10.206;2023-06-10T14:52:55;26.50;99.90
45729;DHT22;31439;53.512;10.206;2023-06-10T14:55:20;26.60;99.90
45729;DHT22;31439;53.512;10.206;2023-06-10T14:57:48;26.60;99.90
45729;DHT22;31439;53.512;10.206;2023-06-10T15:00:14;26.70;99.90
45729;DHT22;31439;53.512;10.206;2023-06-10T15:02:42;26.80;99.90
45729;DHT22;31439;53.512;10.206;2023-06-10T15:05:08;26.80;99.90
45729;DHT22;31439;53.512;10.206;2023-06-10T15:07:34;26.80;99.90
45729;DHT22;31439;53.512;10.206;2023-06-10T15:09:59;26.90;99.90
45729;DHT22;31439;53.512;10.206;2023-06-10T15:12:25;27.00;99.90
45729;DHT22;31439;53.512;10.206;2023-06-10T15:14:51;27.00;99.90
45729;DHT22;31439;53.512;10.206;2023-06-10T15:17:16;26.90;99.90
45729;DHT22;31439;53.512;10.206;2023-06-10T15:19:42;26.90;99.90
45729;DHT22;31439;53.512;10.206;2023-06-10T15:22:07;26.90;99.90
45729;DHT22;31439;53.512;10.206;2023-06-10T15:24:33;26.90;99.90
45729;DHT22;31439;53.512;10.206;2023-06-10T15:26:59;26.80;99.90
45729;DHT22;31439;53.512;10.206;2023-06-10T15:29:24;26.80;99.90
45729;DHT22;31439;53.512;10.206;2023-06-10T15:31:50;26.70;99.90
45729;DHT22;31439;53.512;10.206;2023-06-10T15:34:15;26.60;99.90
45729;DHT22;31439;53.512;10.206;2023-06-10T15:36:41;26.60;99.90
45729;DHT22;31439;53.512;10.206;2023-06-10T15:39:07;26.40;99.90
45729;DHT22;31439;53.512;10.206;2023-06-10T15:41:33;26.40;99.90
45729;DHT22;31439;53.512;10.206;2023-06-10T15:43:59;26.40;99.90
45729;DHT22;31439;53.512;10.206;2023-06-10T15:46:29;26.30;99.90
45729;DHT22;31439;53.512;10.206;2023-06-10T15:48:55;26.20;99.90
45729;DHT22;31439;53.512;10.206;2023-06-10T15:51:21;26.10;99.90
45729;DHT22;31439;53.512;10.206;2023-06-10T15:53:47;26.00;99.90
45729;DHT22;31439;53.512;10.206;2023-06-10T15:56:13;25.90;99.90
45729;DHT22;31439;53.512;10.206;2023-06-10T15:58:39;25.80;99.90
45729;DHT22;31439;53.512;10.206;2023-06-10T16:01:05;25.80;99.90
45729;DHT22;31439;53.512;10.206;2023-06-10T16:03:31;25.80;99.90
45729;DHT22;31439;53.512;10.206;2023-06-10T16:05:57;25.80;99.90
45729;DHT22;31439;53.512;10.206;2023-06-10T16:08:22;25.70;99.90
45729;DHT22;31439;53.512;10.206;2023-06-10T16:10:48;25.60;99.90
45729;DHT22;31439;53.512;10.206;2023-06-10T16:13:14;25.60;99.90
45729;DHT22;31439;53.512;10.206;2023-06-10T16:15:39;25.70;99.90
45729;DHT22;31439;53.512;10.206;2023-06-10T16:18:05;25.70;99.90
45729;DHT22;31439;53.512;10.206;2023-06-10T16:20:31;25.60;99.90
45729;DHT22;31439;53.512;10.206;2023-06-10T16:22:56;25.60;99.90
45729;DHT22;31439;53.512;10.206;2023-06-10T16:25:22;25.50;99.90
45729;DHT22;31439;53.512;10.206;2023-06-10T16:27:47;25.50;99.90
45729;DHT22;31439;53.512;10.206;2023-06-10T16:30:13;25.50;99.90
45729;DHT22;31439;53.512;10.206;2023-06-10T16:32:40;25.50;99.90
45729;DHT22;31439;53.512;10.206;2023-06-10T16:35:06;25.50;99.90
45729;DHT22;31439;53.512;10.206;2023-06-10T16:37:32;25.50;99.90
45729;DHT22;31439;53.512;10.206;2023-06-10T16:39:57;25.40;99.90
45729;DHT22;31439;53.512;10.206;2023-06-10T16:42:23;25.40;99.90
45729;DHT22;31439;53.512;10.206;2023-06-10T16:44:48;25.40;99.90
45729;DHT22;31439;53.512;10.206;2023-06-10T16:47:14;25.30;99.90
45729;DHT22;31439;53.512;10.206;2023-06-10T16:49:40;25.30;99.90
45729;DHT22;31439;53.512;10.206;2023-06-10T16:52:06;25.30;99.90
45729;DHT22;31439;53.512;10.206;2023-06-10T16:54:31;25.30;99.90
45729;DHT22;31439;53.512;10.206;2023-06-10T16:56:57;25.30;99.90
45729;DHT22;31439;53.512;10.206;2023-06-10T16:59:34;25.20;99.90
45729;DHT22;31439;53.512;10.206;2023-06-10T17:01:59;25.20;99.90
45729;DHT22;31439;53.512;10.206;2023-06-10T17:04:25;25.20;99.90
45729;DHT22;31439;53.512;10.206;2023-06-10T17:06:50;25.10;99.90
45729;DHT22;31439;53.512;10.206;2023-06-10T17:09:16;25.20;99.90
45729;DHT22;31439;53.512;10.206;2023-06-10T17:11:42;25.10;99.90
45729;DHT22;31439;53.512;10.206;2023-06-10T17:14:08;25.10;99.90
45729;DHT22;31439;53.512;10.206;2023-06-10T17:16:34;25.10;99.90
45729;DHT22;31439;53.512;10.206;2023-06-10T17:18:59;25.00;99.90
45729;DHT22;31439;53.512;10.206;2023-06-10T17:21:25;25.00;99.90
45729;DHT22;31439;53.512;10.206;2023-06-10T17:23:50;25.00;99.90
45729;DHT22;31439;53.512;10.206;2023-06-10T17:26:16;25.00;99.90
45729;DHT22;31439;53.512;10.206;2023-06-10T17:28:42;24.90;99.90
45729;DHT22;31439;53.512;10.206;2023-06-10T17:31:08;24.80;99.90
45729;DHT22;31439;53.512;10.206;2023-06-10T17:33:33;24.80;99.90
45729;DHT22;31439;53.512;10.206;2023-06-10T17:35:59;24.80;99.90
45729;DHT22;31439;53.512;10.206;2023-06-10T17:38:24;24.70;99.90
45729;DHT22;31439;53.512;10.206;2023-06-10T17:40:50;24.70;99.90
45729;DHT22;31439;53.512;10.206;2023-06-10T17:43:16;24.50;99.90
45729;DHT22;31439;53.512;10.206;2023-06-10T17:45:41;24.50;99.90
45729;DHT22;31439;53.512;10.206;2023-06-10T17:48:07;24.50;99.90
45729;DHT22;31439;53.512;10.206;2023-06-10T17:50:32;24.40;99.90
45729;DHT22;31439;53.512;10.206;2023-06-10T17:52:58;24.40;99.90
45729;DHT22;31439;53.512;10.206;2023-06-10T17:55:24;24.40;99.90
45729;DHT22;31439;53.512;10.206;2023-06-10T17:57:49;24.30;99.90
45729;DHT22;31439;53.512;10.206;2023-06-10T18:00:15;24.20;99.90
45729;DHT22;31439;53.512;10.206;2023-06-10T18:02:41;24.20;99.90
45729;DHT22;31439;53.512;10.206;2023-06-10T18:05:07;24.20;99.90
45729;DHT22;31439;53.512;10.206;2023-06-10T18:07:32;24.10;99.90
45729;DHT22;31439;53.512;10.206;2023-06-10T18:10:11;24.10;99.90
45729;DHT22;31439;53.512;10.206;2023-06-10T18:12:37;24.10;99.90
45729;DHT22;31439;53.512;10.206;2023-06-10T18:22:03;23.90;99.90
45729;DHT22;31439;53.512;10.206;2023-06-10T18:24:38;23.90;99.90
45729;DHT22;31439;53.512;10.206;2023-06-10T18:27:33;23.80;99.90
45729;DHT22;31439;53.512;10.206;2023-06-10T18:46:23;23.60;99.90
45729;DHT22;31439;53.512;10.206;2023-06-10T19:19:01;23.10;99.90
45729;DHT22;31439;53.512;10.206;2023-06-10T19:23:59;23.10;99.90
45729;DHT22;31439;53.512;10.206;2023-06-10T19:33:41;23.30;99.90
45729;DHT22;31439;53.512;10.206;2023-06-10T19:43:52;23.10;99.90
45729;DHT22;31439;53.512;10.206;2023-06-10T19:46:47;23.00;99.90
45729;DHT22;31439;53.512;10.206;2023-06-10T19:58:41;22.90;99.90
45729;DHT22;31439;53.512;10.206;2023-06-10T20:04:00;22.90;99.90
45729;DHT22;31439;53.512;10.206;2023-06-10T20:12:35;22.80;99.90
45729;DHT22;31439;53.512;10.206;2023-06-10T20:17:36;22.80;99.90
45729;DHT22;31439;53.512;10.206;2023-06-10T20:23:45;22.70;99.90
45729;DHT22;31439;53.512;10.206;2023-06-10T20:30:08;22.70;99.90
45729;DHT22;31439;53.512;10.206;2023-06-10T20:36:20;22.60;99.90
45729;DHT22;31439;53.512;10.206;2023-06-10T20:38:49;22.70;99.90
45729;DHT22;31439;53.512;10.206;2023-06-10T20:41:32;22.50;99.90
45729;DHT22;31439;53.512;10.206;2023-06-10T20:44:25;22.30;99.90
45729;DHT22;31439;53.512;10.206;2023-06-10T20:47:08;22.40;99.90
45729;DHT22;31439;53.512;10.206;2023-06-10T20:50:23;22.40;99.90
45729;DHT22;31439;53.512;10.206;2023-06-10T20:53:08;22.20;99.90
45729;DHT22;31439;53.512;10.206;2023-06-10T20:55:57;22.30;99.90
45729;DHT22;31439;53.512;10.206;2023-06-10T20:58:31;22.30;99.90
45729;DHT22;31439;53.512;10.206;2023-06-10T21:01:01;22.30;99.90
45729;DHT22;31439;53.512;10.206;2023-06-10T21:04:07;22.20;99.90
45729;DHT22;31439;53.512;10.206;2023-06-10T21:06:38;22.10;99.90
45729;DHT22;31439;53.512;10.206;2023-06-10T21:09:04;22.00;99.90
45729;DHT22;31439;53.512;10.206;2023-06-10T21:11:33;21.90;99.90
45729;DHT22;31439;53.512;10.206;2023-06-10T21:14:01;21.90;99.90
45729;DHT22;31439;53.512;10.206;2023-06-10T21:16:27;21.90;99.90
45729;DHT22;31439;53.512;10.206;2023-06-10T21:19:04;21.80;99.90
45729;DHT22;31439;53.512;10.206;2023-06-10T21:21:33;21.80;99.90
45729;DHT22;31439;53.512;10.206;2023-06-10T21:24:01;21.70;99.90
45729;DHT22;31439;53.512;10.206;2023-06-10T21:33:26;21.50;99.90
45729;DHT22;31439;53.512;10.206;2023-06-10T21:35:55;21.40;99.90
45729;DHT22;31439;53.512;10.206;2023-06-10T21:38:48;21.40;99.90
45729;DHT22;31439;53.512;10.206;2023-06-10T21:41:19;21.30;99.90
45729;DHT22;31439;53.512;10.206;2023-06-10T21:43:48;21.20;99.90
45729;DHT22;31439;53.512;10.206;2023-06-10T21:48:43;21.10;99.90
45729;DHT22;31439;53.512;10.206;2023-06-10T21:51:19;21.00;99.90
45729;DHT22;31439;53.512;10.206;2023-06-10T21:53:44;21.00;99.90
45729;DHT22;31439;53.512;10.206;2023-06-10T21:56:10;21.00;99.90
45729;DHT22;31439;53.512;10.206;2023-06-10T21:58:36;20.90;99.90
45729;DHT22;31439;53.512;10.206;2023-06-10T22:01:01;20.70;99.90
45729;DHT22;31439;53.512;10.206;2023-06-10T22:03:27;20.60;99.90
45729;DHT22;31439;53.512;10.206;2023-06-10T22:05:52;20.40;99.90
45729;DHT22;31439;53.512;10.206;2023-06-10T22:08:18;20.20;99.90
45729;DHT22;31439;53.512;10.206;2023-06-10T22:10:44;20.20;99.90
45729;DHT22;31439;53.512;10.206;2023-06-10T22:13:10;20.20;99.90
45729;DHT22;31439;53.512;10.206;2023-06-10T22:15:36;20.10;99.90
45729;DHT22;31439;53.512;10.206;2023-06-10T22:18:04;19.90;99.90
45729;DHT22;31439;53.512;10.206;2023-06-10T22:20:30;19.90;99.90
45729;DHT22;31439;53.512;10.206;2023-06-10T22:22:55;19.70;99.90
45729;DHT22;31439;53.512;10.206;2023-06-10T22:25:21;19.60;99.90
45729;DHT22;31439;53.512;10.206;2023-06-10T22:27:46;19.60;99.90
45729;DHT22;31439;53.512;10.206;2023-06-10T22:30:12;19.70;99.90
45729;DHT22;31439;53.512;10.206;2023-06-10T22:32:38;19.80;99.90
45729;DHT22;31439;53.512;10.206;2023-06-10T22:35:04;19.80;99.90
45729;DHT22;31439;53.512;10.206;2023-06-10T22:37:31;19.80;99.90
45729;DHT22;31439;53.512;10.206;2023-06-10T22:39:58;20.10;99.90
45729;DHT22;31439;53.512;10.206;2023-06-10T22:42:23;20.30;99.90
45729;DHT22;31439;53.512;10.206;2023-06-10T22:44:49;20.30;99.90
45729;DHT22;31439;53.512;10.206;2023-06-10T22:47:15;20.30;99.90
45729;DHT22;31439;53.512;10.206;2023-06-10T22:49:40;20.50;99.90
45729;DHT22;31439;53.512;10.206;2023-06-10T22:52:07;20.30;99.90
45729;DHT22;31439;53.512;10.206;2023-06-10T22:54:32;20.40;99.90
45729;DHT22;31439;53.512;10.206;2023-06-10T22:56:59;19.90;99.90
45729;DHT22;31439;53.512;10.206;2023-06-10T22:59:24;19.60;99.90
45729;DHT22;31439;53.512;10.206;2023-06-10T23:01:50;19.30;99.90
45729;DHT22;31439;53.512;10.206;2023-06-10T23:04:16;19.20;99.90
45729;DHT22;31439;53.512;10.206;2023-06-10T23:06:41;19.10;99.90
45729;DHT22;31439;53.512;10.206;2023-06-10T23:09:08;18.90;99.90
45729;DHT22;31439;53.512;10.206;2023-06-10T23:11:34;18.90;99.90
45729;DHT22;31439;53.512;10.206;2023-06-10T23:13:59;18.80;99.90
45729;DHT22;31439;53.512;10.206;2023-06-10T23:16:25;18.80;99.90
45729;DHT22;31439;53.512;10.206;2023-06-10T23:18:53;18.70;99.90
45729;DHT22;31439;53.512;10.206;2023-06-10T23:21:19;18.60;99.90
45729;DHT22;31439;53.512;10.206;2023-06-10T23:23:46;18.60;99.90
45729;DHT22;31439;53.512;10.206;2023-06-10T23:26:17;18.50;99.90
45729;DHT22;31439;53.512;10.206;2023-06-10T23:28:42;18.30;99.90
45729;DHT22;31439;53.512;10.206;2023-06-10T23:31:08;18.30;99.90
45729;DHT22;31439;53.512;10.206;2023-06-10T23:33:34;18.30;99.90
45729;DHT22;31439;53.512;10.206;2023-06-10T23:35:59;18.20;99.90
45729;DHT22;31439;53.512;10.206;2023-06-10T23:38:25;18.20;99.90
45729;DHT22;31439;53.512;10.206;2023-06-10T23:40:51;18.10;99.90
45729;DHT22;31439;53.512;10.206;2023-06-10T23:43:16;18.00;99.90
45729;DHT22;31439;53.512;10.206;2023-06-10T23:45:42;18.00;99.90
45729;DHT22;31439;53.512;10.206;2023-06-10T23:48:08;18.00;99.90
45729;DHT22;31439;53.512;10.206;2023-06-10T23:50:34;18.00;99.90
45729;DHT22;31439;53.512;10.206;2023-06-10T23:53:04;18.00;99.90
45729;DHT22;31439;53.512;10.206;2023-06-10T23:55:31;18.00;99.90
45729;DHT22;31439;53.512;10.206;2023-06-10T23:57:57;17.90;99.90
